Time;durP1;ratioP1;P1;durP2;ratioP2;P2;SDS_P1;SDS_P2;PMS_P1;PMS_P2;Temp;Humidity;BMP_temperature;BMP_pressure;BME280_temperature;BME280_humidity;BME280_pressure;Samples;Min_cycle;Max_cycle;Signal;HPM_P1;HPM_P2
2022/01/24 00:01:46;;;;;;;7.63;6.30;;;2.70;99.90;;;;;;5033597;28;20264;-61
2022/01/24 00:04:13;;;;;;;7.20;5.90;;;2.70;99.90;;;;;;5034117;28;20206;-61
2022/01/24 00:06:41;;;;;;;7.93;5.77;;;2.70;99.90;;;;;;5036121;28;20207;-61
2022/01/24 00:09:09;;;;;;;8.20;6.23;;;2.80;99.90;;;;;;5034306;28;20210;-61
2022/01/24 00:11:40;;;;;;;8.70;6.10;;;2.70;99.90;;;;;;5033830;28;20213;-61
2022/01/24 00:17:05;;;;;;;7.57;5.80;;;2.60;99.90;;;;;;5033456;28;20288;-61
2022/01/24 00:27:44;;;;;;;9.03;5.97;;;2.40;99.90;;;;;;5033154;28;20640;-61
2022/01/24 00:30:14;;;;;;;10.90;7.33;;;2.40;99.90;;;;;;5032975;28;20210;-61
2022/01/24 00:32:41;;;;;;;10.30;7.23;;;2.30;99.90;;;;;;5032627;28;20182;-61
2022/01/24 00:35:09;;;;;;;10.90;7.43;;;2.30;99.90;;;;;;5032952;28;20587;-61
2022/01/24 00:37:36;;;;;;;9.60;6.67;;;2.30;99.90;;;;;;5033208;28;20304;-61
2022/01/24 00:40:03;;;;;;;8.93;6.20;;;2.30;99.90;;;;;;5032849;28;20211;-61
2022/01/24 00:42:39;;;;;;;8.87;6.97;;;2.40;99.90;;;;;;5032895;28;20218;-61
2022/01/24 00:45:16;;;;;;;10.60;6.77;;;2.40;99.90;;;;;;5032951;28;20202;-61
2022/01/24 00:48:04;;;;;;;7.77;5.90;;;2.30;99.90;;;;;;5032702;28;20244;-61
2022/01/24 00:53:38;;;;;;;9.03;6.63;;;2.20;99.90;;;;;;4976799;28;20195;-62
2022/01/24 00:56:05;;;;;;;9.83;6.93;;;2.20;99.90;;;;;;5032544;28;20630;-61
2022/01/24 00:58:32;;;;;;;10.80;7.83;;;2.20;99.90;;;;;;5032403;28;20714;-61
2022/01/24 01:00:59;;;;;;;11.73;7.47;;;2.10;99.90;;;;;;5032403;28;20213;-61
2022/01/24 01:03:27;;;;;;;10.50;6.80;;;2.10;99.90;;;;;;5032454;28;20733;-61
2022/01/24 01:06:05;;;;;;;7.70;5.97;;;2.10;99.90;;;;;;5032517;28;20260;-62
2022/01/24 01:19:32;;;;;;;11.60;7.10;;;1.70;99.90;;;;;;5032455;28;20256;-61
2022/01/24 01:21:58;;;;;;;12.33;8.10;;;1.60;99.90;;;;;;5032354;28;20214;-61
2022/01/24 01:24:27;;;;;;;13.63;8.07;;;1.60;99.90;;;;;;5032495;28;20264;-61
2022/01/24 01:26:59;;;;;;;12.93;7.53;;;1.60;99.90;;;;;;5032126;28;20706;-61
2022/01/24 01:29:30;;;;;;;11.97;7.43;;;1.60;99.90;;;;;;5031932;28;20206;-61
2022/01/24 01:32:08;;;;;;;12.17;7.50;;;1.60;99.90;;;;;;5032388;28;20210;-61
2022/01/24 01:35:07;;;;;;;11.47;6.50;;;1.60;99.90;;;;;;5032483;28;20275;-61
2022/01/24 01:37:56;;;;;;;11.13;8.07;;;1.60;99.90;;;;;;5031958;28;20241;-61
2022/01/24 01:54:34;;;;;;;12.27;8.07;;;1.50;99.90;;;;;;5036241;28;20614;-61
2022/01/24 01:57:02;;;;;;;14.90;8.10;;;1.50;99.90;;;;;;5036273;28;20230;-61
2022/01/24 01:59:29;;;;;;;13.10;8.63;;;1.50;99.90;;;;;;5036072;28;20217;-61
2022/01/24 02:01:55;;;;;;;10.83;7.40;;;1.50;99.90;;;;;;5036090;28;20202;-61
2022/01/24 02:04:22;;;;;;;12.00;7.80;;;1.50;99.90;;;;;;5035930;28;20721;-62
2022/01/24 02:06:50;;;;;;;15.53;9.33;;;1.50;99.90;;;;;;5035655;28;20237;-61
2022/01/24 02:09:17;;;;;;;9.93;7.00;;;1.50;99.90;;;;;;5036006;28;20213;-61
2022/01/24 02:11:43;;;;;;;9.70;7.43;;;1.50;99.90;;;;;;5035691;28;20279;-62
2022/01/24 02:14:15;;;;;;;9.97;7.60;;;1.50;99.90;;;;;;5035983;28;20210;-61
2022/01/24 02:16:47;;;;;;;11.30;7.93;;;1.50;99.90;;;;;;5035659;28;20697;-61
2022/01/24 02:19:26;;;;;;;12.70;7.70;;;1.50;99.90;;;;;;5035594;28;20287;-61
2022/01/24 02:22:38;;;;;;;10.60;7.40;;;1.50;99.90;;;;;;5035558;28;20206;-61
2022/01/24 02:24:58;;;;;;;7.83;6.20;;;1.50;99.90;;;;;;5037853;28;20589;-61
2022/01/24 02:27:27;;;;;;;9.10;6.63;;;1.60;99.90;;;;;;5036573;28;20233;-62
2022/01/24 02:30:08;;;;;;;9.87;6.60;;;1.70;99.90;;;;;;5035364;28;20288;-61
2022/01/24 02:32:37;;;;;;;9.27;6.37;;;1.70;99.90;;;;;;5035827;28;20301;-62
2022/01/24 02:35:05;;;;;;;8.60;6.47;;;1.70;99.90;;;;;;5035917;28;20237;-61
2022/01/24 02:37:33;;;;;;;10.20;6.50;;;1.80;99.90;;;;;;5036537;28;20598;-62
2022/01/24 02:40:04;;;;;;;9.03;5.93;;;1.80;99.90;;;;;;5037219;28;20210;-62
2022/01/24 02:51:22;;;;;;;11.10;7.70;;;1.80;99.90;;;;;;5046219;28;20233;-62
2022/01/24 02:53:50;;;;;;;13.13;8.03;;;1.70;99.90;;;;;;5035892;28;20209;-62
2022/01/24 02:56:16;;;;;;;11.63;8.20;;;1.70;99.90;;;;;;5035111;28;20229;-62
2022/01/24 02:58:43;;;;;;;11.37;7.83;;;1.70;99.90;;;;;;5035133;28;20226;-62
2022/01/24 03:01:10;;;;;;;10.17;6.23;;;1.70;99.90;;;;;;5035253;28;20260;-61
2022/01/24 03:03:38;;;;;;;9.60;5.90;;;1.70;99.90;;;;;;5035475;28;20253;-62
2022/01/24 03:06:05;;;;;;;9.20;5.83;;;1.70;99.90;;;;;;5036417;28;20210;-62
2022/01/24 03:08:32;;;;;;;7.97;5.83;;;1.70;99.90;;;;;;5038810;28;20234;-61
2022/01/24 03:11:00;;;;;;;8.47;5.57;;;1.80;99.90;;;;;;5038548;28;20218;-62
2022/01/24 03:13:36;;;;;;;8.17;5.60;;;1.70;99.90;;;;;;5045886;28;20261;-62
2022/01/24 03:16:05;;;;;;;9.33;5.73;;;1.70;99.90;;;;;;5047913;28;20207;-62
2022/01/24 03:18:32;;;;;;;10.73;6.60;;;1.70;99.90;;;;;;5047963;28;20722;-62
2022/01/24 03:20:58;;;;;;;7.40;6.30;;;1.70;99.90;;;;;;5046328;28;20256;-62
2022/01/24 03:23:26;;;;;;;9.00;6.83;;;1.80;99.90;;;;;;5046793;28;20222;-62
2022/01/24 03:25:53;;;;;;;8.30;5.87;;;1.70;99.90;;;;;;5045074;28;20272;-62
2022/01/24 03:28:21;;;;;;;9.10;6.57;;;1.70;99.90;;;;;;5045811;28;20230;-62
2022/01/24 03:30:48;;;;;;;9.00;6.50;;;1.70;99.90;;;;;;5046322;28;20202;-62
2022/01/24 03:33:15;;;;;;;9.73;6.87;;;1.60;99.90;;;;;;5046884;28;20203;-61
2022/01/24 03:35:43;;;;;;;11.33;7.47;;;1.60;99.90;;;;;;5047516;28;20209;-62
2022/01/24 03:38:11;;;;;;;10.40;7.20;;;1.60;99.90;;;;;;5049447;28;20524;-62
2022/01/24 03:40:37;;;;;;;11.87;7.37;;;1.70;99.90;;;;;;5042571;28;20206;-61
2022/01/24 03:43:04;;;;;;;10.57;7.33;;;1.80;99.90;;;;;;5034859;28;20281;-62
2022/01/24 03:45:42;;;;;;;11.60;7.20;;;1.90;99.90;;;;;;5034508;28;20268;-61
2022/01/24 03:48:12;;;;;;;8.93;6.70;;;2.10;99.90;;;;;;5034363;28;20276;-61
2022/01/24 03:50:39;;;;;;;9.77;6.63;;;2.20;99.90;;;;;;5034052;28;20206;-62
2022/01/24 03:53:06;;;;;;;11.03;6.47;;;2.40;99.90;;;;;;5034084;28;20549;-61
2022/01/24 03:55:33;;;;;;;8.83;6.40;;;2.50;99.90;;;;;;5034051;28;20674;-61
2022/01/24 03:58:01;;;;;;;10.90;6.13;;;2.50;99.90;;;;;;5034215;28;20591;-61
2022/01/24 04:00:27;;;;;;;9.73;5.90;;;2.60;99.90;;;;;;5033918;28;20297;-61
2022/01/24 04:02:56;;;;;;;7.27;5.73;;;2.60;99.90;;;;;;5034235;28;20214;-61
2022/01/24 04:05:23;;;;;;;9.07;5.83;;;2.70;99.90;;;;;;5033821;28;20565;-62
2022/01/24 04:07:50;;;;;;;9.00;6.20;;;2.70;99.90;;;;;;5032934;28;20238;-61
2022/01/24 04:10:19;;;;;;;10.83;6.47;;;2.80;99.90;;;;;;5033775;28;20210;-61
2022/01/24 04:12:46;;;;;;;10.23;5.93;;;2.90;99.90;;;;;;5033989;28;20682;-61
2022/01/24 04:15:26;;;;;;;15.17;11.43;;;2.90;99.90;;;;;;5033639;28;20202;-61
2022/01/24 04:18:12;;;;;;;15.87;11.90;;;3.00;99.90;;;;;;5033373;28;20702;-61
2022/01/24 04:23:23;;;;;;;9.00;7.00;;;3.10;99.90;;;;;;5033569;28;20225;-61
2022/01/24 04:25:50;;;;;;;10.87;7.33;;;3.20;99.90;;;;;;5033175;28;20689;-61
2022/01/24 04:28:17;;;;;;;8.83;6.70;;;3.20;99.90;;;;;;5033274;28;20226;-61
2022/01/24 04:30:43;;;;;;;7.77;6.27;;;3.10;99.90;;;;;;5032870;28;20632;-62
2022/01/24 04:33:11;;;;;;;9.57;7.07;;;3.00;99.90;;;;;;5033740;28;20198;-61
2022/01/24 04:35:38;;;;;;;8.07;6.17;;;3.00;99.90;;;;;;5033337;28;20210;-62
2022/01/24 04:38:05;;;;;;;8.27;5.97;;;2.90;99.90;;;;;;5033623;28;20234;-61
2022/01/24 04:40:31;;;;;;;8.37;5.67;;;2.90;99.90;;;;;;5032944;28;20264;-61
2022/01/24 04:43:16;;;;;;;7.70;5.77;;;2.90;99.90;;;;;;5034567;28;20214;-62
2022/01/24 04:46:00;;;;;;;7.37;5.80;;;2.90;99.90;;;;;;5034562;28;20685;-61
2022/01/24 04:54:39;;;;;;;8.37;6.00;;;2.90;99.90;;;;;;5027815;28;20232;-61
2022/01/24 04:57:08;;;;;;;8.33;6.03;;;2.80;99.90;;;;;;5032806;28;20237;-62
2022/01/24 04:59:35;;;;;;;7.27;5.97;;;2.80;99.90;;;;;;5032712;28;20267;-62
2022/01/24 05:02:03;;;;;;;8.07;5.93;;;2.80;99.90;;;;;;5032406;28;20216;-62
2022/01/24 05:04:31;;;;;;;9.23;6.00;;;2.70;99.90;;;;;;5032817;28;20222;-61
2022/01/24 05:06:57;;;;;;;8.77;6.00;;;2.80;99.90;;;;;;5055965;22;20241;-57
2022/01/24 05:09:25;;;;;;;10.00;6.30;;;2.70;99.90;;;;;;5020791;28;20216;-57
2022/01/24 05:11:57;;;;;;;9.33;6.43;;;2.70;99.90;;;;;;4992856;28;20622;-57
2022/01/24 05:25:21;;;;;;;7.17;5.43;;;2.80;99.90;;;;;;4992831;28;20314;-57
2022/01/24 05:27:48;;;;;;;7.83;5.90;;;2.80;99.90;;;;;;4992883;28;20227;-57
2022/01/24 05:30:16;;;;;;;8.40;6.07;;;2.90;99.90;;;;;;4992698;28;20212;-57
2022/01/24 05:32:43;;;;;;;8.80;7.13;;;3.10;99.90;;;;;;4992767;28;20203;-57
2022/01/24 05:35:12;;;;;;;7.00;5.80;;;3.20;99.90;;;;;;4992620;28;20203;-58
2022/01/24 05:37:38;;;;;;;10.93;7.97;;;3.30;99.90;;;;;;4992746;28;20235;-57
2022/01/24 05:40:07;;;;;;;6.83;5.43;;;3.30;99.90;;;;;;4992497;28;20211;-56
2022/01/24 05:42:34;;;;;;;9.80;7.20;;;3.40;99.90;;;;;;4992680;28;20215;-57
2022/01/24 05:45:00;;;;;;;8.10;6.13;;;3.50;99.90;;;;;;4992579;28;20227;-57
2022/01/24 05:47:27;;;;;;;10.97;6.53;;;3.60;99.90;;;;;;4992515;28;20630;-57
2022/01/24 05:49:54;;;;;;;9.57;6.57;;;3.70;99.90;;;;;;4992147;28;20254;-57
2022/01/24 05:52:22;;;;;;;10.63;7.33;;;3.80;99.90;;;;;;4992629;28;20214;-57
2022/01/24 05:54:48;;;;;;;7.80;5.60;;;3.90;99.90;;;;;;4992608;28;20239;-57
2022/01/24 05:57:15;;;;;;;7.70;6.20;;;4.00;99.90;;;;;;4992285;28;20238;-57
2022/01/24 05:59:42;;;;;;;10.43;8.00;;;4.10;99.90;;;;;;4992378;28;20230;-57
2022/01/24 06:02:08;;;;;;;20.03;12.80;;;4.20;99.90;;;;;;4992262;28;20203;-57
2022/01/24 06:04:35;;;;;;;8.40;6.50;;;4.30;99.90;;;;;;4992057;28;20310;-57
2022/01/24 06:07:03;;;;;;;7.37;5.83;;;4.30;99.90;;;;;;4992133;28;20215;-57
2022/01/24 06:09:31;;;;;;;9.43;5.90;;;4.30;99.90;;;;;;4992308;28;20212;-57
2022/01/24 06:11:57;;;;;;;9.03;6.80;;;4.30;99.90;;;;;;4991916;28;20646;-57
2022/01/24 06:14:24;;;;;;;10.50;7.03;;;4.30;99.90;;;;;;4991999;28;20203;-56
2022/01/24 06:16:51;;;;;;;12.67;7.53;;;4.30;99.90;;;;;;4991912;28;20211;-58
2022/01/24 06:19:18;;;;;;;12.23;8.40;;;4.40;99.90;;;;;;4992242;28;20219;-57
2022/01/24 06:21:45;;;;;;;11.90;8.80;;;4.50;99.90;;;;;;4992101;28;20215;-57
2022/01/24 06:24:12;;;;;;;20.83;13.07;;;4.50;99.90;;;;;;4992240;28;20234;-57
2022/01/24 06:26:43;;;;;;;11.97;8.10;;;4.50;99.90;;;;;;4992078;28;20671;-57
2022/01/24 06:29:10;;;;;;;11.17;8.47;;;4.50;99.90;;;;;;4992483;28;20211;-58
2022/01/24 06:31:37;;;;;;;12.90;7.97;;;4.50;99.90;;;;;;4995394;28;20923;-58
2022/01/24 06:34:04;;;;;;;16.67;11.00;;;4.60;99.90;;;;;;4996050;28;20204;-58
2022/01/24 06:36:31;;;;;;;10.23;7.13;;;4.70;99.90;;;;;;4995842;28;20239;-58
2022/01/24 06:38:59;;;;;;;9.37;6.80;;;4.70;99.90;;;;;;4995812;28;20242;-58
2022/01/24 06:41:30;;;;;;;12.70;9.00;;;4.80;99.90;;;;;;4995559;28;20298;-58
2022/01/24 06:43:58;;;;;;;15.87;10.93;;;4.80;99.90;;;;;;4995343;28;20604;-57
2022/01/24 06:46:25;;;;;;;9.73;7.50;;;4.90;99.90;;;;;;4995662;28;20216;-57
2022/01/24 06:48:52;;;;;;;11.13;7.40;;;4.90;99.90;;;;;;4995305;28;20715;-58
2022/01/24 06:51:19;;;;;;;10.80;7.03;;;4.90;99.90;;;;;;4995279;28;20447;-57
2022/01/24 06:53:46;;;;;;;9.53;6.70;;;4.90;99.90;;;;;;4995849;28;20220;-58
2022/01/24 06:56:13;;;;;;;9.43;6.90;;;4.90;99.90;;;;;;4995459;28;20302;-57
2022/01/24 06:58:40;;;;;;;10.13;6.87;;;4.90;99.90;;;;;;4995318;28;20246;-57
2022/01/24 07:01:08;;;;;;;8.77;6.47;;;4.80;99.90;;;;;;4995384;28;20208;-57
2022/01/24 07:03:35;;;;;;;9.63;6.47;;;4.80;99.90;;;;;;4995484;28;20640;-58
2022/01/24 07:06:04;;;;;;;7.80;6.17;;;4.80;99.90;;;;;;4995339;28;20212;-58
2022/01/24 07:08:31;;;;;;;10.00;6.40;;;4.80;99.90;;;;;;4994872;28;20242;-57
2022/01/24 07:10:57;;;;;;;8.70;7.00;;;4.80;99.90;;;;;;4994708;28;20211;-57
2022/01/24 07:13:24;;;;;;;8.17;6.60;;;4.90;99.90;;;;;;4995517;28;20211;-57
2022/01/24 07:15:55;;;;;;;9.00;7.07;;;4.90;99.90;;;;;;4995138;28;20204;-57
2022/01/24 07:21:07;;;;;;;13.43;8.33;;;5.00;99.90;;;;;;4995078;28;20214;-57
2022/01/24 07:23:35;;;;;;;12.63;8.67;;;5.10;99.90;;;;;;4994961;28;20207;-57
2022/01/24 07:26:02;;;;;;;11.37;9.27;;;5.10;99.90;;;;;;4995211;28;20204;-57
2022/01/24 07:28:29;;;;;;;9.30;7.70;;;5.10;99.90;;;;;;4994949;28;20266;-57
2022/01/24 07:30:55;;;;;;;10.27;7.70;;;5.10;99.90;;;;;;4994830;28;20631;-57
2022/01/24 07:33:23;;;;;;;11.03;7.17;;;5.10;99.90;;;;;;4994863;28;20207;-57
2022/01/24 07:35:50;;;;;;;10.17;8.73;;;5.10;99.90;;;;;;4994766;28;20207;-57
2022/01/24 07:38:17;;;;;;;14.13;11.17;;;5.10;99.90;;;;;;4994766;28;20251;-58
2022/01/24 07:40:47;;;;;;;9.83;8.10;;;5.20;99.90;;;;;;4993842;28;20208;-58
2022/01/24 07:43:14;;;;;;;10.10;8.03;;;5.20;99.90;;;;;;4994623;28;20238;-57
2022/01/24 07:45:42;;;;;;;11.50;8.70;;;5.30;99.90;;;;;;4994521;28;20223;-57
2022/01/24 07:48:09;;;;;;;9.57;6.93;;;5.40;99.90;;;;;;4994508;28;20715;-58
2022/01/24 07:50:40;;;;;;;10.03;6.40;;;5.50;99.90;;;;;;4994182;28;20690;-57
2022/01/24 07:53:07;;;;;;;7.60;6.20;;;5.60;99.90;;;;;;4994237;28;20222;-57
2022/01/24 07:55:34;;;;;;;9.83;7.27;;;5.60;99.90;;;;;;4994045;28;20570;-58
2022/01/24 07:58:01;;;;;;;10.33;7.97;;;5.70;99.90;;;;;;4994061;28;20730;-57
2022/01/24 08:00:28;;;;;;;7.50;6.70;;;5.70;99.90;;;;;;4993990;28;20234;-58
2022/01/24 08:02:57;;;;;;;8.97;6.70;;;5.70;99.90;;;;;;4993863;28;20207;-57
2022/01/24 08:05:24;;;;;;;9.50;6.97;;;5.70;99.90;;;;;;4994007;28;20227;-57
2022/01/24 08:07:52;;;;;;;10.13;7.67;;;5.70;99.90;;;;;;4993824;28;20240;-57
2022/01/24 08:10:18;;;;;;;9.30;8.13;;;5.70;99.90;;;;;;4993502;28;20674;-57
2022/01/24 08:12:45;;;;;;;8.83;7.70;;;5.70;99.90;;;;;;4993760;28;20218;-57
2022/01/24 08:15:14;;;;;;;9.57;6.90;;;5.70;99.90;;;;;;4993515;28;20267;-57
2022/01/24 08:17:41;;;;;;;8.07;7.27;;;5.70;99.90;;;;;;4993416;28;20231;-58
2022/01/24 08:20:09;;;;;;;13.47;6.87;;;5.70;99.90;;;;;;4993598;28;20231;-57
2022/01/24 08:22:36;;;;;;;7.97;6.93;;;5.70;99.90;;;;;;4993687;28;20559;-57
2022/01/24 08:25:05;;;;;;;10.00;6.80;;;5.80;99.90;;;;;;4993591;28;20273;-57
2022/01/24 08:27:32;;;;;;;9.57;6.70;;;5.80;99.90;;;;;;4993439;28;20231;-57
2022/01/24 08:29:59;;;;;;;9.80;6.10;;;5.80;99.90;;;;;;4993526;28;20207;-56
2022/01/24 08:32:26;;;;;;;6.93;5.40;;;5.80;99.90;;;;;;4993403;28;20718;-59
2022/01/24 08:34:53;;;;;;;8.37;5.90;;;5.80;99.90;;;;;;4993882;28;20207;-56
2022/01/24 08:37:20;;;;;;;5.90;5.27;;;5.80;99.90;;;;;;4992988;28;20259;-56
2022/01/24 08:39:46;;;;;;;7.77;6.00;;;5.80;99.90;;;;;;4993291;28;20286;-56
2022/01/24 08:42:18;;;;;;;6.70;5.60;;;5.90;99.90;;;;;;4993552;28;20214;-56
2022/01/24 08:47:31;;;;;;;10.33;5.50;;;5.80;99.90;;;;;;4993450;28;20261;-58
2022/01/24 08:49:59;;;;;;;6.10;4.90;;;5.80;99.90;;;;;;4993447;28;20263;-57
2022/01/24 08:52:27;;;;;;;5.43;4.90;;;5.90;99.90;;;;;;4993095;28;20208;-57
2022/01/24 08:54:54;;;;;;;6.97;6.13;;;5.80;99.90;;;;;;4993628;28;20210;-58
2022/01/24 08:57:25;;;;;;;5.43;4.93;;;5.80;99.90;;;;;;4993296;28;20606;-57
2022/01/24 08:59:52;;;;;;;6.73;6.00;;;5.80;99.90;;;;;;4993344;28;20203;-58
2022/01/24 09:02:19;;;;;;;7.07;5.17;;;5.90;99.90;;;;;;4993242;28;20215;-57
2022/01/24 09:04:46;;;;;;;8.07;6.20;;;6.00;99.90;;;;;;4993420;28;20219;-57
2022/01/24 09:07:17;;;;;;;7.17;5.53;;;6.10;99.90;;;;;;4993084;28;20239;-57
2022/01/24 09:09:44;;;;;;;11.57;6.13;;;6.20;99.90;;;;;;4993632;28;20698;-57
2022/01/24 09:12:12;;;;;;;6.30;5.67;;;6.20;99.90;;;;;;4993504;28;20582;-58
2022/01/24 09:14:43;;;;;;;7.07;5.70;;;6.20;99.90;;;;;;4993715;28;20203;-57
2022/01/24 09:17:10;;;;;;;7.30;6.10;;;6.30;99.90;;;;;;4993717;28;20321;-57
2022/01/24 09:19:36;;;;;;;9.03;5.47;;;6.40;99.90;;;;;;4993256;28;20208;-58
2022/01/24 09:22:04;;;;;;;6.20;5.33;;;6.40;99.90;;;;;;4993466;28;20222;-57
2022/01/24 09:24:30;;;;;;;6.17;4.97;;;6.40;99.90;;;;;;4992769;28;20211;-58
2022/01/24 09:26:57;;;;;;;6.50;4.60;;;6.40;99.90;;;;;;4993550;28;20630;-57
2022/01/24 09:29:24;;;;;;;6.50;4.97;;;6.40;99.90;;;;;;4993360;28;20266;-56
2022/01/24 09:31:52;;;;;;;6.20;5.10;;;6.40;99.90;;;;;;4993621;28;20208;-57
2022/01/24 09:34:20;;;;;;;5.63;4.70;;;6.40;99.90;;;;;;4993274;28;20246;-57
2022/01/24 09:36:47;;;;;;;5.50;4.47;;;6.40;99.90;;;;;;4992865;28;20203;-56
2022/01/24 09:39:14;;;;;;;7.77;4.47;;;6.40;99.90;;;;;;4992832;28;20246;-55
2022/01/24 09:41:41;;;;;;;6.57;4.60;;;6.40;99.90;;;;;;4992684;28;20593;-56
2022/01/24 09:44:07;;;;;;;4.50;4.00;;;6.50;99.90;;;;;;4992752;28;20215;-56
2022/01/24 09:46:35;;;;;;;5.77;4.53;;;6.50;99.90;;;;;;4992278;28;20722;-56
2022/01/24 09:49:04;;;;;;;4.40;3.70;;;6.40;99.90;;;;;;4992662;28;20235;-55
2022/01/24 09:51:31;;;;;;;6.03;3.93;;;6.40;99.90;;;;;;4992448;28;20203;-56
2022/01/24 09:53:58;;;;;;;5.40;4.00;;;6.50;99.90;;;;;;4992796;28;20265;-56
2022/01/24 09:56:25;;;;;;;5.40;4.77;;;6.60;99.90;;;;;;4992439;28;20298;-56
2022/01/24 09:58:52;;;;;;;6.70;3.30;;;6.60;99.90;;;;;;4992607;28;20447;-57
2022/01/24 10:01:20;;;;;;;4.00;3.60;;;6.70;99.90;;;;;;4992401;28;20257;-57
2022/01/24 10:04:06;;;;;;;4.20;3.30;;;6.60;99.90;;;;;;4992647;28;20286;-57
2022/01/24 10:06:56;;;;;;;5.90;3.50;;;6.60;99.90;;;;;;4997285;28;20638;-57
2022/01/24 10:09:28;;;;;;;5.87;3.80;;;6.60;99.90;;;;;;4996477;28;20298;-57
2022/01/24 10:12:05;;;;;;;4.70;4.00;;;6.80;99.90;;;;;;4996185;28;20220;-57
2022/01/24 10:17:23;;;;;;;4.23;3.23;;;7.00;99.90;;;;;;4996251;28;20618;-57
2022/01/24 10:19:52;;;;;;;5.40;3.63;;;7.00;99.90;;;;;;4996513;28;20203;-56
2022/01/24 10:22:22;;;;;;;3.63;3.17;;;7.00;99.90;;;;;;4996343;28;20684;-58
2022/01/24 10:24:51;;;;;;;4.73;3.07;;;7.00;99.90;;;;;;4996279;28;20746;-56
2022/01/24 10:27:20;;;;;;;5.43;2.80;;;7.00;99.90;;;;;;4996490;28;20305;-57
2022/01/24 10:29:49;;;;;;;3.87;2.70;;;7.00;99.90;;;;;;4996311;28;20267;-57
2022/01/24 10:32:32;;;;;;;4.37;3.03;;;7.10;99.90;;;;;;4995955;28;20647;-57
2022/01/24 10:35:22;;;;;;;4.67;3.17;;;7.00;99.90;;;;;;4995127;28;20254;-56
2022/01/24 10:37:52;;;;;;;5.93;2.90;;;7.10;99.90;;;;;;4996089;28;20231;-57
2022/01/24 10:40:34;;;;;;;6.37;3.77;;;7.20;99.90;;;;;;4995708;28;20215;-56
2022/01/24 10:43:16;;;;;;;3.87;2.80;;;7.60;99.90;;;;;;4995825;28;20219;-57
2022/01/24 10:45:44;;;;;;;6.97;3.20;;;7.70;99.90;;;;;;4995736;28;20251;-56
2022/01/24 10:48:11;;;;;;;5.93;3.20;;;7.70;99.90;;;;;;4995690;28;20223;-56
2022/01/24 10:50:39;;;;;;;4.23;3.10;;;7.80;99.90;;;;;;4995624;28;20235;-57
2022/01/24 10:53:11;;;;;;;3.70;3.07;;;8.00;99.90;;;;;;4996033;28;20218;-57
2022/01/24 10:55:41;;;;;;;3.47;2.80;;;8.20;99.90;;;;;;4995599;28;20204;-56
2022/01/24 10:58:09;;;;;;;4.73;3.10;;;8.20;99.90;;;;;;4995226;28;20322;-57
2022/01/24 11:00:40;;;;;;;4.00;2.83;;;8.10;99.90;;;;;;4995388;28;20219;-57
2022/01/24 11:03:08;;;;;;;3.67;2.70;;;8.10;99.90;;;;;;4995414;28;20298;-56
2022/01/24 11:05:36;;;;;;;3.43;2.80;;;8.10;99.90;;;;;;4995136;28;20270;-57
2022/01/24 11:08:09;;;;;;;2.40;2.20;;;8.10;99.90;;;;;;5034165;23;20233;-56
2022/01/24 11:10:37;;;;;;;4.63;3.10;;;8.20;99.90;;;;;;5034449;28;20209;-57
2022/01/24 11:13:05;;;;;;;5.70;3.10;;;8.30;99.90;;;;;;5035146;28;20211;-57
2022/01/24 11:15:34;;;;;;;5.30;2.70;;;8.60;99.90;;;;;;5034196;28;20202;-57
2022/01/24 11:18:02;;;;;;;4.93;3.00;;;8.90;99.90;;;;;;5034369;28;20226;-57
2022/01/24 11:20:33;;;;;;;6.53;2.97;;;9.00;99.90;;;;;;5034408;28;20215;-57
2022/01/24 11:23:02;;;;;;;4.47;2.57;;;9.20;99.90;;;;;;5034154;28;20563;-56
2022/01/24 11:25:32;;;;;;;5.30;2.60;;;9.30;99.90;;;;;;5034302;28;20226;-57
2022/01/24 11:27:58;;;;;;;2.53;1.90;;;9.30;99.90;;;;;;5034171;28;20300;-54
2022/01/24 11:30:29;;;;;;;3.30;2.30;;;9.30;99.90;;;;;;5033500;28;20213;-54
2022/01/24 11:32:59;;;;;;;4.40;2.60;;;9.10;99.90;;;;;;5034078;28;20211;-54
2022/01/24 11:35:34;;;;;;;3.13;2.30;;;9.10;99.90;;;;;;5033969;28;20202;-56
2022/01/24 11:38:01;;;;;;;6.07;2.40;;;9.00;99.90;;;;;;5034297;28;20226;-57
2022/01/24 11:40:47;;;;;;;3.23;2.33;;;9.10;99.90;;;;;;5034108;28;20210;-57
2022/01/24 11:43:33;;;;;;;4.73;2.20;;;9.30;99.90;;;;;;5033942;28;20214;-54
2022/01/24 11:46:05;;;;;;;4.27;2.57;;;9.30;99.90;;;;;;5034120;28;20226;-56
2022/01/24 11:48:33;;;;;;;3.33;2.60;;;9.20;99.90;;;;;;5034392;28;20232;-56
2022/01/24 11:51:03;;;;;;;4.70;2.80;;;8.90;99.90;;;;;;5033889;28;20276;-57
2022/01/24 11:53:33;;;;;;;2.73;2.47;;;8.90;99.90;;;;;;5034476;28;20666;-54
2022/01/24 11:56:19;;;;;;;4.10;2.50;;;9.10;99.90;;;;;;5034052;28;20203;-54
2022/01/24 11:58:47;;;;;;;3.23;2.30;;;9.10;99.90;;;;;;5034067;28;20291;-54
2022/01/24 12:01:32;;;;;;;3.53;2.50;;;9.20;99.90;;;;;;5033529;28;20632;-54
2022/01/24 12:03:59;;;;;;;4.47;2.50;;;9.30;99.90;;;;;;5033859;28;20549;-54
2022/01/24 12:06:26;;;;;;;3.10;2.60;;;9.40;99.90;;;;;;5033435;28;20368;-54
2022/01/24 12:09:07;;;;;;;3.47;2.40;;;9.40;99.90;;;;;;5033000;28;20725;-57
2022/01/24 12:11:37;;;;;;;5.27;2.40;;;9.60;99.90;;;;;;5033064;28;20202;-54
2022/01/24 12:14:18;;;;;;;5.63;2.30;;;9.70;99.90;;;;;;5033561;28;20210;-55
2022/01/24 12:16:45;;;;;;;3.13;2.43;;;9.60;99.90;;;;;;5033296;28;20237;-55
2022/01/24 12:19:12;;;;;;;7.27;2.60;;;9.60;99.90;;;;;;5033191;28;20313;-55
2022/01/24 12:21:40;;;;;;;5.17;2.67;;;9.70;99.90;;;;;;5032688;28;20218;-60
2022/01/24 12:24:10;;;;;;;2.67;2.30;;;9.70;99.90;;;;;;5032652;28;20724;-57
2022/01/24 12:26:40;;;;;;;4.40;2.57;;;9.70;99.90;;;;;;5032543;28;20230;-57
2022/01/24 12:29:10;;;;;;;3.50;2.57;;;9.70;99.90;;;;;;5033119;28;20343;-57
2022/01/24 12:31:42;;;;;;;3.73;3.00;;;9.70;99.90;;;;;;5032663;28;20202;-57
2022/01/24 12:34:13;;;;;;;2.90;2.30;;;9.70;99.90;;;;;;5032967;28;20564;-57
2022/01/24 12:37:02;;;;;;;4.07;2.33;;;9.70;99.90;;;;;;5032914;28;20210;-57
2022/01/24 12:39:37;;;;;;;4.53;2.10;;;9.90;99.90;;;;;;5032771;28;20237;-57
2022/01/24 12:42:12;;;;;;;5.70;2.70;;;10.00;99.90;;;;;;5032570;28;20267;-57
2022/01/24 12:47:27;;;;;;;3.40;2.67;;;10.30;99.90;;;;;;5032756;28;20233;-58
2022/01/24 12:49:56;;;;;;;5.60;3.10;;;10.50;99.90;;;;;;5032597;28;20206;-56
2022/01/24 12:52:25;;;;;;;3.70;2.20;;;10.50;99.90;;;;;;5032254;28;20210;-56
2022/01/24 12:54:55;;;;;;;3.27;2.17;;;10.60;99.90;;;;;;5032406;28;20211;-57
2022/01/24 12:57:30;;;;;;;3.30;2.37;;;10.50;99.90;;;;;;5032453;28;20236;-56
2022/01/24 12:59:59;;;;;;;7.13;2.50;;;10.30;99.90;;;;;;5032660;28;20210;-56
2022/01/24 13:02:27;;;;;;;3.60;2.60;;;10.10;99.90;;;;;;5032701;28;20561;-56
2022/01/24 13:05:01;;;;;;;5.33;2.23;;;10.10;99.90;;;;;;5032286;28;20210;-56
2022/01/24 13:07:30;;;;;;;6.43;2.50;;;10.20;99.90;;;;;;5031924;28;20234;-58
2022/01/24 13:10:07;;;;;;;4.10;2.40;;;10.30;99.90;;;;;;5032653;28;20218;-56
2022/01/24 13:12:35;;;;;;;4.50;2.40;;;10.40;99.90;;;;;;5032278;28;20256;-56
2022/01/24 13:15:06;;;;;;;2.57;2.13;;;10.40;99.90;;;;;;5032295;28;20216;-56
2022/01/24 13:20:48;;;;;;;3.90;2.50;;;9.90;99.90;;;;;;5032367;28;20283;-56
2022/01/24 13:23:21;;;;;;;5.50;2.40;;;9.90;99.90;;;;;;5032260;28;20206;-56
2022/01/24 13:25:49;;;;;;;4.47;2.40;;;10.00;99.90;;;;;;5032585;28;20210;-56
2022/01/24 13:28:19;;;;;;;5.00;2.40;;;10.00;99.90;;;;;;5031849;28;20241;-56
2022/01/24 13:30:48;;;;;;;5.13;2.50;;;10.10;99.90;;;;;;5028064;28;20472;-61
2022/01/24 13:33:19;;;;;;;5.80;2.30;;;10.10;99.90;;;;;;5031666;28;20206;-59
2022/01/24 13:35:47;;;;;;;3.87;2.40;;;10.20;99.90;;;;;;5032304;28;20221;-56
2022/01/24 13:38:17;;;;;;;5.80;2.87;;;10.30;99.90;;;;;;5031367;28;20242;-56
2022/01/24 13:40:53;;;;;;;4.70;2.20;;;10.30;99.90;;;;;;5031197;28;20202;-56
2022/01/24 13:43:31;;;;;;;3.77;2.30;;;10.30;99.90;;;;;;5031931;28;20622;-56
2022/01/24 13:45:59;;;;;;;6.17;2.30;;;10.30;99.90;;;;;;5031361;28;20317;-56
2022/01/24 13:48:26;;;;;;;5.60;2.50;;;10.20;99.90;;;;;;5031699;28;20295;-56
2022/01/24 13:50:56;;;;;;;4.17;2.40;;;10.30;99.90;;;;;;5031405;28;20214;-56
2022/01/24 13:53:31;;;;;;;3.50;2.40;;;10.30;99.90;;;;;;5031735;28;20210;-56
2022/01/24 13:55:58;;;;;;;2.93;1.80;;;10.40;99.90;;;;;;5031797;28;20248;-57
2022/01/24 13:58:25;;;;;;;5.47;2.63;;;10.40;99.90;;;;;;5031626;28;20321;-56
2022/01/24 14:00:59;;;;;;;3.73;2.33;;;10.20;99.90;;;;;;5031363;28;20635;-59
2022/01/24 14:03:26;;;;;;;4.87;2.30;;;10.00;99.90;;;;;;5031530;28;20698;-59
2022/01/24 14:06:11;;;;;;;4.17;2.27;;;9.90;99.90;;;;;;5031439;28;20219;-67
2022/01/24 14:08:38;;;;;;;4.07;2.50;;;9.90;99.90;;;;;;5031531;28;20230;-58
2022/01/24 14:11:12;;;;;;;5.47;2.63;;;9.90;99.90;;;;;;5031239;28;20206;-58
2022/01/24 14:13:39;;;;;;;3.80;2.50;;;10.00;99.90;;;;;;5031401;28;20292;-59
2022/01/24 14:16:21;;;;;;;3.20;2.10;;;10.00;99.90;;;;;;5029024;28;20203;-60
2022/01/24 14:19:00;;;;;;;4.27;2.37;;;10.00;99.90;;;;;;5031880;28;20226;-60
2022/01/24 14:21:27;;;;;;;5.50;3.40;;;10.00;99.90;;;;;;5031151;28;20206;-64
2022/01/24 14:23:54;;;;;;;6.33;2.47;;;9.90;99.90;;;;;;5031477;28;20670;-63
2022/01/24 14:26:24;;;;;;;5.60;3.20;;;9.80;99.90;;;;;;5031018;28;20230;-63
2022/01/24 14:29:06;;;;;;;3.90;3.40;;;9.80;99.90;;;;;;5031205;28;20226;-59